Usugli, Russia
Current Conditions -  °F | °C
As of 7:30 PM on Tuesday 21 Oct 2014 (Local Time) from UIAA Reporting Station
Few Clouds Few Clouds  
Wind Chill: 13°   Ceiling: Unl
Heat Index: 19°   Visibility: 6mi
Dew Point: 10°   Wind: 4mph
Humidity: 68%   Direction: NA
Pressure: 30.03"   Gusts: NA
Location:  52.65°N, 115.26°E
Report Text: UIAA 211030Z VRB02MPS 9999 FEW100 M07/M12 Q1017 NOSIG RMKQFE704 29CLRD70
Loading
Personal Weather Stations






























Interactive Weather Map
Tropical Storm Tracking
New forecast layout! Learn more

10-Day Weather Forecast

Advertisements
Track Severe Weather on mobile